createdAt,value
2022-12-20T00:00:32.395Z,1.65
2022-12-20T00:05:40.101Z,1.69
2022-12-20T00:10:45.321Z,1.69
2022-12-20T00:15:46.752Z,1.55
2022-12-20T00:20:48.166Z,1.59
2022-12-20T00:25:49.589Z,1.63
2022-12-20T00:30:54.439Z,1.61
2022-12-20T00:35:57.110Z,1.72
2022-12-20T00:41:10.591Z,1.78
2022-12-20T00:46:14.408Z,1.60
2022-12-20T00:51:18.876Z,1.64
2022-12-20T00:56:21.190Z,1.70
2022-12-20T01:01:28.162Z,1.68
2022-12-20T01:06:30.759Z,1.86
2022-12-20T01:11:35.256Z,1.99
2022-12-20T01:16:41.844Z,1.89
2022-12-20T01:21:46.337Z,1.66
2022-12-20T01:26:48.175Z,1.81
2022-12-20T01:31:49.904Z,1.72
2022-12-20T01:36:51.415Z,1.83
2022-12-20T01:41:52.902Z,1.88
2022-12-20T01:46:55.027Z,1.79
2022-12-20T01:52:08.221Z,1.77
2022-12-20T01:57:16.378Z,1.73
2022-12-20T02:02:18.263Z,1.81
2022-12-20T02:07:28.223Z,1.77
2022-12-20T02:12:48.714Z,1.61
2022-12-20T02:18:02.016Z,1.42
2022-12-20T02:23:35.139Z,1.44
2022-12-20T02:28:59.805Z,1.51
2022-12-20T02:34:03.157Z,1.65
2022-12-20T02:39:04.653Z,1.69
2022-12-20T02:44:30.287Z,1.65
2022-12-20T02:49:38.509Z,1.73
2022-12-20T02:54:40.078Z,1.82
2022-12-20T03:00:06.685Z,1.82
2022-12-20T03:05:08.348Z,1.92
2022-12-20T03:10:10.854Z,1.82
2022-12-20T03:15:12.331Z,1.94
2022-12-20T03:20:13.900Z,2.01
2022-12-20T03:25:15.549Z,1.95
2022-12-20T03:30:17.055Z,2.13
2022-12-20T03:35:18.631Z,2.16
2022-12-20T03:40:20.161Z,2.20
2022-12-20T03:45:21.648Z,2.18
2022-12-20T03:50:23.169Z,2.08
2022-12-20T03:55:24.863Z,2.18
2022-12-20T04:00:26.346Z,2.29
2022-12-20T04:05:27.799Z,2.31
2022-12-20T04:10:29.221Z,2.44
2022-12-20T04:15:30.691Z,2.43
2022-12-20T04:20:32.129Z,2.41
2022-12-20T04:25:33.546Z,2.44
2022-12-20T04:30:34.975Z,2.37
2022-12-20T04:35:37.936Z,2.40
2022-12-20T04:40:39.359Z,2.45
2022-12-20T04:45:40.787Z,2.45
2022-12-20T04:50:42.879Z,2.38
2022-12-20T04:55:44.343Z,2.47
2022-12-20T05:00:45.777Z,2.51
2022-12-20T05:05:48.557Z,2.53
2022-12-20T05:10:50.129Z,2.43
2022-12-20T05:15:55.780Z,2.50
2022-12-20T05:21:17.969Z,2.46
2022-12-20T05:26:19.833Z,2.36
2022-12-20T05:31:21.451Z,2.13
2022-12-20T05:36:22.919Z,2.11
2022-12-20T05:41:24.419Z,2.10
2022-12-20T05:46:25.950Z,2.20
2022-12-20T05:51:27.587Z,2.13
2022-12-20T05:56:29.034Z,2.11
2022-12-20T06:01:30.609Z,2.02
2022-12-20T06:06:32.056Z,1.93
2022-12-20T06:11:33.817Z,2.01
2022-12-20T06:16:36.318Z,2.02
2022-12-20T06:21:37.778Z,2.14
2022-12-20T06:26:39.204Z,2.20
2022-12-20T06:31:41.126Z,2.27
2022-12-20T06:36:42.665Z,2.21
2022-12-20T06:41:44.583Z,2.19
2022-12-20T06:46:46.020Z,2.13
2022-12-20T06:51:47.492Z,2.24
2022-12-20T06:56:48.984Z,2.38
2022-12-20T07:01:50.542Z,2.36
2022-12-20T07:06:52.119Z,2.39
2022-12-20T07:11:53.563Z,2.48
2022-12-20T07:16:55.219Z,2.64
2022-12-20T07:21:56.693Z,2.49
2022-12-20T07:26:58.373Z,2.51
2022-12-20T07:32:00.192Z,2.63
2022-12-20T07:37:01.687Z,2.60
2022-12-20T07:42:03.163Z,2.60
2022-12-20T07:47:04.759Z,2.79
2022-12-20T07:52:10.837Z,2.86
2022-12-20T07:57:17.967Z,2.90
2022-12-20T08:02:27.443Z,2.61
2022-12-20T08:07:30.109Z,2.79
2022-12-20T08:12:32.859Z,2.80
2022-12-20T08:17:34.811Z,2.91
2022-12-20T08:22:36.289Z,3.07
2022-12-20T08:27:37.831Z,2.96
2022-12-20T08:32:39.373Z,2.99
2022-12-20T08:37:40.853Z,2.89
2022-12-20T08:42:42.306Z,2.71
2022-12-20T08:47:43.739Z,2.88
2022-12-20T08:52:45.169Z,2.66
2022-12-20T08:57:46.582Z,2.85
2022-12-20T09:02:49.059Z,2.71
2022-12-20T09:07:50.564Z,2.89
2022-12-20T09:12:52.028Z,2.99
2022-12-20T09:17:53.561Z,3.07
2022-12-20T09:22:55.406Z,3.28
2022-12-20T09:27:56.884Z,3.55
2022-12-20T09:32:58.868Z,3.59
2022-12-20T09:38:12.659Z,3.64
2022-12-20T09:43:15.994Z,3.62
2022-12-20T09:48:21.600Z,3.80
2022-12-20T09:54:03.776Z,3.88
2022-12-20T09:59:11.510Z,3.94
2022-12-20T10:04:19.684Z,4.24
2022-12-20T10:09:29.985Z,4.27
2022-12-20T10:15:12.363Z,3.86
2022-12-20T10:20:23.149Z,3.83
2022-12-20T10:25:30.620Z,3.85
2022-12-20T10:30:33.440Z,4.00
2022-12-20T10:35:40.874Z,3.91
2022-12-20T10:46:11.887Z,3.70
2022-12-20T10:51:17.324Z,3.88
2022-12-20T10:56:29.940Z,4.19
2022-12-20T11:01:35.641Z,4.20
2022-12-20T11:06:37.129Z,4.30
2022-12-20T11:11:38.815Z,4.46
2022-12-20T11:16:40.752Z,4.48
2022-12-20T11:22:09.601Z,4.38
2022-12-20T11:27:19.677Z,4.39
2022-12-20T11:32:49.050Z,4.43
2022-12-20T11:37:51.028Z,4.54
2022-12-20T11:43:21.421Z,4.74
2022-12-20T11:48:35.063Z,4.74
2022-12-20T11:53:49.098Z,4.64
2022-12-20T11:58:55.745Z,4.70
2022-12-20T12:04:42.387Z,4.66
2022-12-20T12:10:06.372Z,4.52
2022-12-20T12:15:48.099Z,4.47
2022-12-20T12:21:09.487Z,4.25
2022-12-20T12:26:27.694Z,4.26
2022-12-20T12:32:08.519Z,4.21
2022-12-20T12:37:44.020Z,4.44
2022-12-20T12:42:58.952Z,4.53
2022-12-20T12:48:04.062Z,4.60
2022-12-20T12:53:13.395Z,4.51
2022-12-20T12:58:23.982Z,4.67
2022-12-20T13:03:47.475Z,4.72
2022-12-20T13:09:10.406Z,4.80
2022-12-20T13:14:17.876Z,4.77
2022-12-20T13:19:34.410Z,4.75
2022-12-20T13:24:56.728Z,4.67
2022-12-20T13:30:07.347Z,4.68
2022-12-20T13:35:27.933Z,4.63
2022-12-20T13:40:38.265Z,4.51
2022-12-20T13:45:45.719Z,4.48
2022-12-20T13:50:50.966Z,4.49
2022-12-20T13:55:53.088Z,4.39
2022-12-20T14:01:05.599Z,4.27
2022-12-20T14:06:11.474Z,4.18
2022-12-20T14:11:22.114Z,4.06
2022-12-20T14:16:25.833Z,4.02
2022-12-20T14:21:28.446Z,3.83
2022-12-20T14:26:44.735Z,3.30
2022-12-20T14:31:50.108Z,3.41
2022-12-20T14:36:51.746Z,3.45
2022-12-20T14:41:57.881Z,3.14
2022-12-20T14:47:02.290Z,3.13
2022-12-20T14:52:17.820Z,3.05
2022-12-20T14:57:22.014Z,3.11
2022-12-20T15:02:54.362Z,3.08
2022-12-20T15:07:55.935Z,3.14
2022-12-20T15:12:57.581Z,3.21
2022-12-20T15:17:59.017Z,3.06
2022-12-20T15:23:00.529Z,3.04
2022-12-20T15:28:01.979Z,3.10
2022-12-20T15:33:03.547Z,3.11
2022-12-20T15:38:05.002Z,3.07
2022-12-20T15:43:10.196Z,2.97
2022-12-20T15:48:16.057Z,3.02
2022-12-20T15:53:22.618Z,2.90
2022-12-20T15:58:25.026Z,2.92
2022-12-20T16:03:31.394Z,3.07
2022-12-20T16:08:33.430Z,3.18
2022-12-20T16:13:35.283Z,3.04
2022-12-20T16:18:36.785Z,3.18
2022-12-20T16:23:39.117Z,3.07
2022-12-20T16:28:40.813Z,3.02
2022-12-20T16:33:42.232Z,2.97
2022-12-20T16:38:44.890Z,3.10
2022-12-20T16:43:47.439Z,2.99
2022-12-20T16:48:50.063Z,3.13
2022-12-20T16:54:19.378Z,2.99
2022-12-20T16:59:23.433Z,3.08
2022-12-20T17:04:26.699Z,2.93
2022-12-20T17:09:28.278Z,3.17
2022-12-20T17:14:30.026Z,3.15
2022-12-20T17:19:31.483Z,3.11
2022-12-20T17:24:33.663Z,2.95
2022-12-20T17:29:35.101Z,2.87
2022-12-20T17:34:36.650Z,2.96
2022-12-20T17:39:38.090Z,2.79
2022-12-20T17:44:39.621Z,2.76
2022-12-20T17:49:41.099Z,2.76
2022-12-20T17:54:42.807Z,3.07
2022-12-20T17:59:44.604Z,3.09
2022-12-20T18:04:47.179Z,3.22
2022-12-20T18:09:49.279Z,3.19
2022-12-20T18:14:51.255Z,3.10
2022-12-20T18:19:55.696Z,3.09
2022-12-20T18:24:57.138Z,3.10
2022-12-20T18:29:58.613Z,3.12
2022-12-20T18:35:00.056Z,3.12
2022-12-20T18:40:01.549Z,3.15
2022-12-20T18:45:03.245Z,3.23
2022-12-20T18:50:05.413Z,3.17
2022-12-20T18:55:07.185Z,3.28
2022-12-20T19:00:09.246Z,3.26
2022-12-20T19:05:10.652Z,3.29
2022-12-20T19:10:12.072Z,3.13
2022-12-20T19:15:14.520Z,3.05
2022-12-20T19:20:16.266Z,2.93
2022-12-20T19:25:17.685Z,3.16
2022-12-20T19:30:19.197Z,3.22
2022-12-20T19:35:54.229Z,3.31
2022-12-20T19:40:52.001Z,3.17
2022-12-20T19:45:53.781Z,3.22
2022-12-20T19:51:05.973Z,3.24
2022-12-20T19:56:08.723Z,3.23
2022-12-20T20:01:10.977Z,3.42
2022-12-20T20:06:13.290Z,3.33
2022-12-20T20:11:14.730Z,3.43
2022-12-20T20:16:21.830Z,3.42
2022-12-20T20:21:24.596Z,3.50
2022-12-20T20:26:29.236Z,3.59
2022-12-20T20:31:30.787Z,3.71
2022-12-20T20:36:32.367Z,3.63
2022-12-20T20:41:33.858Z,3.51
2022-12-20T20:46:35.328Z,3.47
2022-12-20T20:51:36.808Z,3.56
2022-12-20T20:56:38.266Z,3.60
2022-12-20T21:01:39.777Z,3.63
2022-12-20T21:06:42.154Z,3.54
2022-12-20T21:11:44.867Z,3.57
2022-12-20T21:16:46.409Z,3.40
2022-12-20T21:21:47.880Z,3.36
2022-12-20T21:26:51.075Z,3.38
2022-12-20T21:31:52.563Z,3.39
2022-12-20T21:36:54.256Z,3.39
2022-12-20T21:42:01.505Z,3.39
2022-12-20T21:47:03.538Z,3.39
2022-12-20T21:52:05.092Z,3.30
2022-12-20T21:57:06.546Z,3.45
2022-12-20T22:02:11.384Z,3.42
2022-12-20T22:07:13.041Z,3.33
2022-12-20T22:12:14.448Z,3.22
2022-12-20T22:17:15.886Z,3.09
2022-12-20T22:22:18.440Z,2.99
2022-12-20T22:27:19.901Z,2.97
2022-12-20T22:32:21.386Z,2.93
2022-12-20T22:37:22.832Z,2.96
2022-12-20T22:42:24.263Z,2.86
2022-12-20T22:52:44.206Z,2.94
2022-12-20T22:57:45.935Z,2.88
2022-12-20T23:02:47.538Z,3.11
2022-12-20T23:07:49.052Z,3.07
2022-12-20T23:13:09.343Z,2.99
2022-12-20T23:18:10.819Z,3.04
2022-12-20T23:23:12.218Z,3.05
2022-12-20T23:28:13.668Z,2.96
2022-12-20T23:33:15.113Z,2.86
2022-12-20T23:38:16.546Z,2.90
2022-12-20T23:43:18.731Z,2.94
2022-12-20T23:48:20.128Z,2.86
2022-12-20T23:53:21.546Z,2.86
2022-12-20T23:58:22.974Z,2.86
